This is the latest recevied weather packets stored in our database for station/object WC4PEM-14. If no packets are shown the sender has not sent any weather packets the latest 1 day(s).
| Time | Temp. | Humidity | Pressure | Rain* | Wind** | Luminosity | Snow |
|---|---|---|---|---|---|---|---|
| 1777996686 | 28.33° C | 52% | 1015.9 hPa | 0 mm | 2.24 m/s, 93° | - | - |
| 1777996502 | 28.33° C | 52% | 1016 hPa | 0 mm | 2.68 m/s, 124° | - | - |
| 1777996386 | 28.33° C | 52% | 1016 hPa | 0 mm | 2.68 m/s, 124° | - | - |
| 1777996086 | 28.33° C | 52% | 1016 hPa | 0 mm | 2.68 m/s, 132° | - | - |
| 1777995829 | 28.33° C | 54% | 1016.1 hPa | 0 mm | 2.68 m/s, 100° | - | - |
| 1777995786 | 28.33° C | 54% | 1016.1 hPa | 0 mm | 2.68 m/s, 100° | - | - |
| 1777995486 | 28.33° C | 54% | 1016 hPa | 0 mm | 2.24 m/s, 100° | - | - |
| 1777995186 | 28.33° C | 54% | 1016 hPa | 0 mm | 2.24 m/s, 95° | - | - |
| 1777994950 | 27.78° C | 55% | 1015.9 hPa | 0 mm | 3.13 m/s, 96° | - | - |
| 1777994886 | 27.78° C | 55% | 1015.9 hPa | 0 mm | 3.13 m/s, 96° | - | - |
| 1777994586 | 27.78° C | 54% | 1015.8 hPa | 0 mm | 3.58 m/s, 119° | - | - |
| 1777994463 | 27.78° C | 53% | 1016 hPa | 0 mm | 3.13 m/s, 98° | - | - |
| 1777994286 | 27.78° C | 53% | 1016 hPa | 0 mm | 3.13 m/s, 98° | - | - |
| 1777994159 | 27.78° C | 55% | 1015.9 hPa | 0 mm | 3.58 m/s, 93° | - | - |
| 1777993986 | 27.78° C | 55% | 1015.9 hPa | 0 mm | 3.58 m/s, 93° | - | - |
| 1777993686 | 27.78° C | 55% | 1016 hPa | 0 mm | 4.02 m/s, 90° | - | - |
| 1777993530 | 27.78° C | 54% | 1015.9 hPa | 0 mm | 3.13 m/s, 90° | - | - |
| 1777993386 | 27.78° C | 54% | 1015.9 hPa | 0 mm | 3.13 m/s, 90° | - | - |
| 1777993214 | 27.78° C | 57% | 1015.9 hPa | 0 mm | 3.13 m/s, 104° | - | - |
| 1777993086 | 27.78° C | 57% | 1015.9 hPa | 0 mm | 3.13 m/s, 104° | - | - |
| 1777992906 | 27.78° C | 56% | 1016.1 hPa | 0 mm | 2.68 m/s, 102° | - | - |
| 1777992786 | 27.78° C | 56% | 1016.1 hPa | 0 mm | 2.68 m/s, 102° | - | - |
| 1777992486 | 27.78° C | 55% | 1016 hPa | 0 mm | 2.24 m/s, 338° | - | - |
| 1777992352 | 27.22° C | 61% | 1015.9 hPa | 0 mm | 2.68 m/s, 93° | - | - |
| 1777992186 | 27.22° C | 61% | 1015.9 hPa | 0 mm | 2.68 m/s, 93° | - | - |
* Rain latest hour (hover to see other rain measurements)
** Current wind speed in m/s (hover to see current wind gust speed)